Time;durP1;ratioP1;P1;durP2;ratioP2;P2;SDS_P1;SDS_P2;PMS_P1;PMS_P2;Temp;Humidity;BMP_temperature;BMP_pressure;BME280_temperature;BME280_humidity;BME280_pressure;Samples;Min_cycle;Max_cycle;Signal;HPM_P1;HPM_P2
2022/06/04 00:00:30;;;;;;;4.35;3.75;;;18.00;99.90;;;;;;5092179;28;20169;-48
2022/06/04 00:02:56;;;;;;;5.75;3.72;;;18.00;99.90;;;;;;5092754;28;20177;-50
2022/06/04 00:05:25;;;;;;;5.43;3.65;;;17.90;99.90;;;;;;5092096;28;20157;-52
2022/06/04 00:07:52;;;;;;;4.13;3.83;;;18.00;99.90;;;;;;5092033;28;20172;-51
2022/06/04 00:15:51;;;;;;;5.05;3.47;;;17.90;99.90;;;;;;5092275;28;20168;-52
2022/06/04 00:18:18;;;;;;;4.22;3.58;;;18.00;99.90;;;;;;5091835;28;20593;-51
2022/06/04 00:20:44;;;;;;;5.70;3.45;;;18.00;99.90;;;;;;5091947;28;20162;-49
2022/06/04 00:23:11;;;;;;;5.40;3.47;;;18.00;99.90;;;;;;5091747;28;20648;-48
2022/06/04 00:25:39;;;;;;;5.22;3.58;;;17.90;99.90;;;;;;5092144;28;20623;-50
2022/06/04 00:28:07;;;;;;;4.32;3.33;;;18.00;99.90;;;;;;5092101;28;20260;-48
2022/06/04 00:30:34;;;;;;;9.32;3.58;;;18.00;99.90;;;;;;5091885;28;20203;-48
2022/06/04 00:32:59;;;;;;;4.07;3.33;;;17.90;99.90;;;;;;5092133;28;20166;-50
2022/06/04 00:35:27;;;;;;;4.97;3.80;;;17.00;99.90;;;;;;5092059;28;20157;-51
2022/06/04 00:37:52;;;;;;;4.63;3.08;;;17.90;99.90;;;;;;5092032;28;20166;-51
2022/06/04 00:40:51;;;;;;;6.28;3.33;;;17.90;99.90;;;;;;5091900;28;20661;-49
2022/06/04 00:43:18;;;;;;;4.05;3.67;;;17.90;99.90;;;;;;5091674;28;20168;-52
2022/06/04 00:45:59;;;;;;;4.03;3.60;;;17.90;99.90;;;;;;5095698;28;20188;-48
2022/06/04 00:48:24;;;;;;;4.75;3.00;;;17.90;99.90;;;;;;5095706;28;20161;-51
2022/06/04 00:50:50;;;;;;;4.28;3.40;;;17.80;99.90;;;;;;5095666;28;20214;-52
2022/06/04 00:53:16;;;;;;;4.20;3.10;;;17.80;99.90;;;;;;5095423;28;20240;-50
2022/06/04 00:55:55;;;;;;;4.18;3.42;;;17.80;99.90;;;;;;5095476;28;20687;-51
2022/06/04 00:58:26;;;;;;;5.70;3.13;;;17.70;99.90;;;;;;5095371;28;20638;-52
2022/06/04 01:01:25;;;;;;;5.20;3.40;;;17.70;99.90;;;;;;5077478;28;20517;-52
2022/06/04 01:03:59;;;;;;;4.78;3.40;;;17.60;99.90;;;;;;5094996;28;20226;-51
2022/06/04 01:06:52;;;;;;;3.88;2.83;;;17.60;99.90;;;;;;5095662;28;20168;-52
2022/06/04 01:09:51;;;;;;;5.15;3.25;;;17.60;99.90;;;;;;5095402;28;20625;-51
2022/06/04 01:12:42;;;;;;;3.45;2.92;;;17.70;99.90;;;;;;5095178;28;20240;-52
2022/06/04 01:15:22;;;;;;;4.75;3.20;;;17.60;99.90;;;;;;5095176;28;20170;-52
2022/06/04 01:18:31;;;;;;;3.15;2.85;;;17.60;99.90;;;;;;5095075;28;20163;-51
2022/06/04 01:21:19;;;;;;;5.57;3.40;;;17.60;99.90;;;;;;5095289;28;20173;-49
2022/06/04 01:23:50;;;;;;;5.55;3.10;;;17.60;99.90;;;;;;5094988;28;20161;-52
2022/06/04 01:26:57;;;;;;;3.17;2.78;;;17.50;99.90;;;;;;5094881;28;20634;-52
2022/06/04 01:29:49;;;;;;;4.72;2.83;;;17.50;99.90;;;;;;5094669;28;20207;-52
2022/06/04 01:32:28;;;;;;;3.83;3.13;;;17.50;99.90;;;;;;5090697;28;20212;-53
2022/06/04 01:35:11;;;;;;;3.20;2.90;;;17.50;99.90;;;;;;5094680;28;20173;-53
2022/06/04 01:37:43;;;;;;;4.03;2.95;;;17.50;99.90;;;;;;5076529;28;20161;-53
2022/06/04 01:42:59;;;;;;;3.97;2.80;;;17.40;99.90;;;;;;5095181;28;20541;-49
2022/06/04 01:45:27;;;;;;;6.78;3.05;;;17.40;99.90;;;;;;5076721;28;20201;-52
2022/06/04 01:47:56;;;;;;;5.38;3.20;;;17.40;99.90;;;;;;5094756;28;20169;-49
2022/06/04 01:50:28;;;;;;;5.55;3.28;;;17.40;99.90;;;;;;5094421;28;20213;-52
2022/06/04 01:52:58;;;;;;;4.38;3.20;;;17.30;99.90;;;;;;5094223;28;20217;-50
2022/06/04 01:55:42;;;;;;;3.90;3.50;;;17.30;99.90;;;;;;5093556;28;20232;-52
2022/06/04 01:58:14;;;;;;;6.80;3.40;;;17.30;99.90;;;;;;5094505;28;20193;-52
2022/06/04 02:00:48;;;;;;;3.72;3.00;;;17.20;99.90;;;;;;5094313;28;20660;-48
2022/06/04 02:03:22;;;;;;;3.95;3.22;;;17.10;99.90;;;;;;5094211;28;20158;-53
2022/06/04 02:05:55;;;;;;;5.53;3.20;;;17.20;99.90;;;;;;5094125;28;20167;-52
2022/06/04 02:08:30;;;;;;;4.13;3.33;;;17.10;99.90;;;;;;5094099;28;20157;-50
2022/06/04 02:11:03;;;;;;;5.80;3.45;;;17.10;99.90;;;;;;5094350;28;20179;-52
2022/06/04 02:13:29;;;;;;;6.07;2.97;;;17.10;99.90;;;;;;5094344;28;20170;-52
2022/06/04 02:16:01;;;;;;;4.30;3.17;;;17.10;99.90;;;;;;5093913;28;20178;-52
2022/06/04 02:18:27;;;;;;;3.85;3.25;;;17.10;99.90;;;;;;5094491;28;20201;-53
2022/06/04 02:20:52;;;;;;;3.85;2.60;;;17.10;99.90;;;;;;5093922;28;20162;-53
2022/06/04 02:23:19;;;;;;;4.18;3.10;;;17.20;99.90;;;;;;5093930;28;20157;-53
2022/06/04 02:25:45;;;;;;;5.07;3.30;;;17.10;99.90;;;;;;5075658;28;20169;-53
2022/06/04 02:28:11;;;;;;;4.88;3.10;;;17.10;99.90;;;;;;5093732;28;20526;-51
2022/06/04 02:31:01;;;;;;;3.80;3.25;;;17.00;99.90;;;;;;5093729;28;20205;-53
2022/06/04 02:33:45;;;;;;;5.10;3.22;;;17.00;99.90;;;;;;5093833;28;20193;-52
2022/06/04 02:36:33;;;;;;;4.43;3.20;;;17.00;99.90;;;;;;5093893;28;20169;-52
2022/06/04 02:39:12;;;;;;;3.35;3.03;;;17.00;99.90;;;;;;5093849;28;20161;-53
2022/06/04 02:41:48;;;;;;;4.03;3.25;;;17.00;99.90;;;;;;5093475;28;20200;-53
2022/06/04 02:44:33;;;;;;;5.85;3.42;;;16.90;99.90;;;;;;5093493;28;20161;-53
2022/06/04 02:47:24;;;;;;;4.70;3.10;;;16.80;99.90;;;;;;5093607;28;20165;-53
2022/06/04 02:49:56;;;;;;;4.75;3.28;;;16.80;99.90;;;;;;5093195;28;20211;-53
2022/06/04 02:52:23;;;;;;;5.55;3.17;;;16.80;99.90;;;;;;5093086;28;20698;-53
2022/06/04 02:54:57;;;;;;;4.90;3.08;;;16.80;99.90;;;;;;5074958;28;20177;-53
2022/06/04 02:57:24;;;;;;;4.72;3.65;;;16.70;99.90;;;;;;5093135;28;20153;-53
2022/06/04 02:59:50;;;;;;;6.60;3.40;;;16.70;99.90;;;;;;5093164;28;20531;-51
2022/06/04 03:02:19;;;;;;;3.38;3.08;;;16.70;99.90;;;;;;5074886;28;20170;-53
2022/06/04 03:04:50;;;;;;;3.45;3.13;;;16.70;99.90;;;;;;5092991;28;20638;-54
2022/06/04 03:07:18;;;;;;;3.97;3.25;;;16.60;99.90;;;;;;5093087;28;20269;-53
2022/06/04 03:09:44;;;;;;;3.83;3.42;;;16.70;99.90;;;;;;5093108;28;20216;-53
2022/06/04 03:12:11;;;;;;;5.90;3.47;;;16.70;99.90;;;;;;5093193;28;20620;-52
2022/06/04 03:14:37;;;;;;;5.13;3.78;;;16.60;99.90;;;;;;5093036;28;20261;-52
2022/06/04 03:17:08;;;;;;;6.13;3.45;;;16.60;99.90;;;;;;5092777;28;20189;-53
2022/06/04 03:19:34;;;;;;;5.40;3.53;;;16.50;99.90;;;;;;5092957;28;20184;-52
2022/06/04 03:22:00;;;;;;;6.07;4.72;;;16.60;99.90;;;;;;5093073;28;20165;-53
2022/06/04 03:24:26;;;;;;;6.00;3.42;;;16.50;99.90;;;;;;5092940;28;20161;-51
2022/06/04 03:26:52;;;;;;;4.35;3.95;;;16.50;99.90;;;;;;5092497;28;20165;-53
2022/06/04 03:29:17;;;;;;;4.32;3.40;;;16.50;99.90;;;;;;5092753;28;20205;-53
2022/06/04 03:31:43;;;;;;;3.92;3.50;;;16.40;99.90;;;;;;5092589;28;20695;-53
2022/06/04 03:34:09;;;;;;;6.05;3.10;;;16.40;99.90;;;;;;5092529;28;20177;-52
2022/06/04 03:36:35;;;;;;;5.68;3.83;;;16.40;99.90;;;;;;5092555;28;20169;-53
2022/06/04 03:39:01;;;;;;;4.38;3.40;;;16.50;99.90;;;;;;5092341;28;20165;-50
2022/06/04 03:41:27;;;;;;;5.35;3.17;;;16.40;99.90;;;;;;5092954;28;20231;-53
2022/06/04 03:43:53;;;;;;;9.50;3.90;;;16.30;99.90;;;;;;5092388;28;20252;-53
2022/06/04 03:46:24;;;;;;;6.47;3.33;;;16.30;99.90;;;;;;5092365;28;20623;-53
2022/06/04 03:48:59;;;;;;;5.55;3.08;;;16.30;99.90;;;;;;5092286;28;20283;-53
2022/06/04 03:51:27;;;;;;;3.80;3.47;;;16.30;99.90;;;;;;5092447;28;20630;-52
2022/06/04 03:53:53;;;;;;;6.30;3.80;;;16.30;99.90;;;;;;5092198;28;20177;-50
2022/06/04 03:56:19;;;;;;;5.10;3.60;;;16.30;99.90;;;;;;5092170;28;20165;-51
2022/06/04 03:58:44;;;;;;;6.57;3.65;;;16.20;99.90;;;;;;5092221;28;20192;-52
2022/06/04 04:01:17;;;;;;;6.05;3.72;;;16.20;99.90;;;;;;5092234;28;20180;-52
2022/06/04 04:03:43;;;;;;;9.65;3.83;;;16.20;99.90;;;;;;5092212;28;20230;-51
2022/06/04 04:06:18;;;;;;;7.28;3.75;;;16.10;99.90;;;;;;5092191;28;20200;-52
2022/06/04 04:08:44;;;;;;;5.32;3.10;;;16.20;99.90;;;;;;5074237;28;20189;-53
2022/06/04 04:11:11;;;;;;;5.30;3.75;;;16.30;99.90;;;;;;5092043;28;20209;-53
2022/06/04 04:13:37;;;;;;;5.78;3.78;;;16.30;99.90;;;;;;5091992;28;20195;-53
2022/06/04 04:16:03;;;;;;;8.32;3.70;;;16.20;99.90;;;;;;5092142;28;20208;-52
2022/06/04 04:18:29;;;;;;;4.68;3.75;;;16.20;99.90;;;;;;5092192;28;20169;-53
2022/06/04 04:20:55;;;;;;;4.25;3.83;;;16.20;99.90;;;;;;5096387;28;20173;-53
2022/06/04 04:23:20;;;;;;;6.22;3.58;;;16.20;99.90;;;;;;5096165;28;20169;-53
2022/06/04 04:25:46;;;;;;;5.18;3.85;;;16.20;99.90;;;;;;5096056;28;20596;-53
2022/06/04 04:28:11;;;;;;;4.43;3.70;;;16.20;99.90;;;;;;5096093;28;20165;-53
2022/06/04 04:30:37;;;;;;;5.90;3.70;;;16.30;99.90;;;;;;5095913;28;20216;-53
2022/06/04 04:33:05;;;;;;;6.57;3.97;;;16.30;99.90;;;;;;5096194;28;20191;-53
2022/06/04 04:35:33;;;;;;;4.00;3.60;;;16.40;99.90;;;;;;5095928;28;20169;-52
2022/06/04 04:37:59;;;;;;;5.32;3.83;;;16.60;99.90;;;;;;5096154;28;20210;-54
2022/06/04 04:40:27;;;;;;;5.03;3.63;;;16.70;99.90;;;;;;5095811;28;20641;-54
2022/06/04 04:42:53;;;;;;;7.88;3.72;;;16.70;99.90;;;;;;5095852;28;20166;-53
2022/06/04 04:45:21;;;;;;;5.65;3.85;;;16.80;99.90;;;;;;5095646;28;20165;-53
2022/06/04 04:47:48;;;;;;;4.03;3.58;;;16.80;99.90;;;;;;5095622;28;20176;-51
2022/06/04 04:50:18;;;;;;;4.63;3.90;;;17.00;99.90;;;;;;5095677;28;20213;-51
2022/06/04 04:52:45;;;;;;;5.25;3.90;;;17.00;99.90;;;;;;5095537;28;20232;-52
2022/06/04 04:55:10;;;;;;;3.88;3.55;;;17.10;99.90;;;;;;5095661;28;20506;-51
2022/06/04 04:57:36;;;;;;;6.82;4.35;;;17.00;99.90;;;;;;5095470;28;20172;-52
2022/06/04 05:00:06;;;;;;;4.20;3.63;;;17.10;99.90;;;;;;5095294;28;20169;-52
2022/06/04 05:02:31;;;;;;;5.40;3.60;;;17.20;99.90;;;;;;5095105;28;20236;-52
2022/06/04 05:04:58;;;;;;;5.50;3.40;;;17.30;99.90;;;;;;5095625;28;20200;-53
2022/06/04 05:07:23;;;;;;;6.97;3.65;;;17.50;99.90;;;;;;5094878;28;20204;-52
2022/06/04 05:09:49;;;;;;;4.68;3.78;;;17.60;99.90;;;;;;5094737;28;20224;-53
2022/06/04 05:12:14;;;;;;;5.55;3.65;;;17.70;99.90;;;;;;5095164;28;20227;-52
2022/06/04 05:14:40;;;;;;;4.80;3.65;;;17.80;99.90;;;;;;5095183;28;20200;-51
2022/06/04 05:17:06;;;;;;;5.38;4.13;;;18.00;99.90;;;;;;5095085;28;20212;-51
2022/06/04 05:19:32;;;;;;;4.32;3.17;;;18.10;99.90;;;;;;5094916;28;20161;-54
2022/06/04 05:21:58;;;;;;;6.78;4.00;;;18.00;99.90;;;;;;5095373;28;20173;-48
2022/06/04 05:24:30;;;;;;;4.68;3.70;;;18.00;99.90;;;;;;5095196;28;20188;-53
2022/06/04 05:26:56;;;;;;;3.70;3.30;;;18.10;99.90;;;;;;5095248;28;20630;-52
2022/06/04 05:29:23;;;;;;;4.72;3.70;;;17.90;99.90;;;;;;5094723;28;20745;-53
2022/06/04 05:31:48;;;;;;;5.65;3.85;;;18.00;99.90;;;;;;5075301;28;20172;-52
2022/06/04 05:34:16;;;;;;;4.78;3.70;;;17.90;99.90;;;;;;5094538;28;20706;-52
2022/06/04 05:36:43;;;;;;;6.55;4.03;;;17.90;99.90;;;;;;5094464;28;20176;-52
2022/06/04 05:39:09;;;;;;;4.60;3.78;;;18.00;99.90;;;;;;5094644;28;20170;-51
2022/06/04 05:41:35;;;;;;;3.95;3.63;;;17.90;99.90;;;;;;5094622;28;20192;-52
2022/06/04 05:44:01;;;;;;;4.70;4.03;;;18.00;99.90;;;;;;5094655;28;20161;-50
2022/06/04 05:46:27;;;;;;;5.85;3.45;;;18.00;99.90;;;;;;5094770;28;20176;-52
2022/06/04 05:48:53;;;;;;;4.40;3.42;;;18.10;99.90;;;;;;5094442;28;20186;-52
2022/06/04 05:51:24;;;;;;;8.25;4.18;;;17.90;99.90;;;;;;5094375;28;20674;-52
2022/06/04 05:53:50;;;;;;;6.32;3.70;;;18.10;99.90;;;;;;5094423;28;20264;-53
2022/06/04 05:56:26;;;;;;;6.70;3.47;;;18.10;99.90;;;;;;5094544;28;20650;-52
2022/06/04 05:58:55;;;;;;;3.83;3.53;;;18.00;99.90;;;;;;5094281;28;20310;-50
2022/06/04 06:01:23;;;;;;;10.20;4.00;;;18.10;99.90;;;;;;5094320;28;20165;-53
2022/06/04 06:03:49;;;;;;;6.82;3.83;;;18.30;99.90;;;;;;5094215;28;20169;-52
2022/06/04 06:06:17;;;;;;;3.83;3.00;;;18.30;99.90;;;;;;5094222;28;20656;-53
2022/06/04 06:08:44;;;;;;;5.32;3.28;;;18.30;99.90;;;;;;5093738;28;20166;-52
2022/06/04 06:11:13;;;;;;;5.68;3.50;;;18.30;99.90;;;;;;5094090;28;20185;-53
2022/06/04 06:13:39;;;;;;;6.85;4.05;;;18.30;99.90;;;;;;5094036;28;20249;-53
2022/06/04 06:16:15;;;;;;;4.32;3.78;;;18.40;99.90;;;;;;5093903;28;20650;-49
2022/06/04 06:18:41;;;;;;;6.72;3.50;;;18.40;99.90;;;;;;5093949;28;20630;-53
2022/06/04 06:21:13;;;;;;;5.70;3.70;;;18.60;99.90;;;;;;5093710;28;20170;-51
2022/06/04 06:23:40;;;;;;;5.43;3.72;;;18.60;99.90;;;;;;5093842;28;20161;-52
2022/06/04 06:26:13;;;;;;;4.18;3.30;;;18.50;99.90;;;;;;5093814;28;20174;-53
2022/06/04 06:28:40;;;;;;;5.38;3.28;;;18.50;99.90;;;;;;5093515;28;20666;-53
2022/06/04 06:31:08;;;;;;;7.80;3.90;;;18.60;99.90;;;;;;5093593;28;20209;-52
2022/06/04 06:33:34;;;;;;;7.35;3.38;;;18.60;99.90;;;;;;5093610;28;20193;-52
2022/06/04 06:36:04;;;;;;;4.95;3.35;;;18.80;99.90;;;;;;5093767;28;20173;-53
2022/06/04 06:38:30;;;;;;;6.03;3.60;;;18.90;99.90;;;;;;5075427;28;20168;-52
2022/06/04 06:40:57;;;;;;;8.93;3.75;;;19.00;99.90;;;;;;5093720;28;20162;-51
2022/06/04 06:43:23;;;;;;;5.43;3.80;;;18.90;99.90;;;;;;5093059;28;20169;-53
2022/06/04 06:45:49;;;;;;;3.65;2.92;;;18.90;99.90;;;;;;5093438;28;20687;-52
2022/06/04 06:48:15;;;;;;;4.18;3.78;;;18.90;99.90;;;;;;5093437;28;20174;-52
2022/06/04 06:50:42;;;;;;;4.38;3.97;;;18.70;99.90;;;;;;5093158;28;20208;-53
2022/06/04 06:53:09;;;;;;;5.90;3.38;;;18.90;99.90;;;;;;5093107;28;20217;-53
2022/06/04 06:55:34;;;;;;;6.50;3.65;;;19.00;99.90;;;;;;5074990;28;20691;-52
2022/06/04 06:58:00;;;;;;;4.18;3.78;;;19.10;99.90;;;;;;5093510;28;20232;-52
2022/06/04 07:00:26;;;;;;;6.53;4.22;;;19.10;99.90;;;;;;5093502;28;20183;-53
2022/06/04 07:02:51;;;;;;;3.55;3.25;;;19.10;99.90;;;;;;5093073;28;20685;-53
2022/06/04 07:05:17;;;;;;;5.97;3.38;;;19.10;99.90;;;;;;5093289;28;20173;-52
2022/06/04 07:07:42;;;;;;;7.05;3.88;;;19.20;99.90;;;;;;5093069;28;20211;-53
2022/06/04 07:10:09;;;;;;;5.85;3.95;;;19.30;99.90;;;;;;5092907;28;20244;-52
2022/06/04 07:12:35;;;;;;;8.38;4.03;;;19.40;99.90;;;;;;5092880;28;20196;-53
2022/06/04 07:15:01;;;;;;;4.45;3.28;;;19.50;99.90;;;;;;5092934;28;20208;-50
2022/06/04 07:17:26;;;;;;;6.40;3.80;;;19.60;99.90;;;;;;5093035;28;20161;-53
2022/06/04 07:19:52;;;;;;;4.82;3.67;;;19.80;99.90;;;;;;5092734;28;20204;-52
2022/06/04 07:22:18;;;;;;;6.07;4.20;;;19.80;99.90;;;;;;5092941;28;20176;-52
2022/06/04 07:24:43;;;;;;;5.70;3.70;;;20.00;99.90;;;;;;5092678;28;20634;-51
2022/06/04 07:27:09;;;;;;;6.38;4.18;;;20.00;99.90;;;;;;5092645;28;20235;-52
2022/06/04 07:29:35;;;;;;;6.07;4.03;;;20.00;99.90;;;;;;5092770;28;20204;-53
2022/06/04 07:32:04;;;;;;;5.88;3.95;;;19.90;99.90;;;;;;5092565;28;20174;-52
2022/06/04 07:34:30;;;;;;;4.97;4.15;;;19.90;99.90;;;;;;5093030;28;20201;-52
2022/06/04 07:36:55;;;;;;;7.20;4.30;;;19.80;99.90;;;;;;5092735;28;20680;-50
2022/06/04 07:39:22;;;;;;;4.45;3.47;;;19.70;99.90;;;;;;5092384;28;20165;-52
2022/06/04 07:41:52;;;;;;;6.18;3.92;;;19.90;99.90;;;;;;5092632;28;20161;-51
2022/06/04 07:44:19;;;;;;;8.18;4.40;;;20.00;99.90;;;;;;5092295;28;20203;-52
2022/06/04 07:46:47;;;;;;;6.82;4.40;;;20.00;99.90;;;;;;5074173;28;20653;-51
2022/06/04 07:49:13;;;;;;;5.95;4.47;;;20.00;99.90;;;;;;5092279;28;20201;-53
2022/06/04 07:51:41;;;;;;;6.47;4.45;;;20.00;99.90;;;;;;5092420;28;20267;-54
2022/06/04 07:54:09;;;;;;;4.47;4.07;;;20.00;99.90;;;;;;5091515;28;20200;-53
2022/06/04 07:56:36;;;;;;;5.88;4.50;;;20.00;99.90;;;;;;5092457;28;20174;-53
2022/06/04 07:59:03;;;;;;;5.28;3.55;;;20.00;99.90;;;;;;5092155;28;20642;-53
2022/06/04 08:01:29;;;;;;;9.13;4.80;;;20.10;99.90;;;;;;5092490;28;20179;-53
2022/06/04 08:03:55;;;;;;;5.78;5.00;;;20.20;99.90;;;;;;5092301;28;20251;-54
2022/06/04 08:06:22;;;;;;;4.18;3.80;;;20.30;99.90;;;;;;5092359;28;20538;-53
2022/06/04 08:08:50;;;;;;;5.85;4.55;;;20.40;99.90;;;;;;5091999;28;20175;-53
2022/06/04 08:11:33;;;;;;;6.68;4.38;;;20.40;99.90;;;;;;5091985;28;20181;-52
2022/06/04 08:14:13;;;;;;;7.10;4.40;;;20.50;99.90;;;;;;5092369;28;20161;-53
2022/06/04 08:16:45;;;;;;;6.57;4.88;;;20.40;99.90;;;;;;5091917;28;20638;-52
2022/06/04 08:19:11;;;;;;;5.70;4.55;;;20.70;99.90;;;;;;5092222;28;20543;-53
2022/06/04 08:21:38;;;;;;;4.72;4.20;;;20.90;99.90;;;;;;5092139;28;20547;-51
2022/06/04 08:24:05;;;;;;;5.68;4.70;;;21.10;99.90;;;;;;5092107;28;20218;-53
2022/06/04 08:26:30;;;;;;;8.07;4.30;;;21.20;99.90;;;;;;5091857;28;20270;-50
2022/06/04 08:28:57;;;;;;;7.28;4.57;;;21.00;99.90;;;;;;5091993;28;20177;-53
2022/06/04 08:31:22;;;;;;;4.80;4.22;;;21.30;99.90;;;;;;5091812;28;20174;-53
2022/06/04 08:33:48;;;;;;;6.05;4.32;;;21.50;99.90;;;;;;5091656;28;20168;-54
2022/06/04 08:36:16;;;;;;;6.35;4.10;;;21.80;99.90;;;;;;5092015;28;20542;-54
2022/06/04 08:38:42;;;;;;;5.97;4.57;;;22.00;99.90;;;;;;5091727;28;20158;-54
2022/06/04 08:41:26;;;;;;;6.30;4.80;;;22.10;99.90;;;;;;5091708;28;20180;-53
2022/06/04 08:44:10;;;;;;;6.80;4.70;;;22.10;99.90;;;;;;5091764;28;20176;-54
2022/06/04 08:46:44;;;;;;;9.40;4.63;;;22.00;99.90;;;;;;5091719;28;20166;-52
2022/06/04 08:49:14;;;;;;;7.53;4.72;;;21.90;99.90;;;;;;5091695;28;20180;-53
2022/06/04 08:51:43;;;;;;;10.77;4.65;;;22.10;99.90;;;;;;5091708;28;20271;-52
2022/06/04 08:59:49;;;;;;;6.35;4.40;;;22.60;99.90;;;;;;5091788;28;20261;-54
2022/06/04 09:02:21;;;;;;;6.47;4.97;;;22.60;99.90;;;;;;5091772;28;20184;-51
2022/06/04 09:05:01;;;;;;;6.32;4.90;;;22.60;99.90;;;;;;5091961;28;20158;-54
2022/06/04 09:07:37;;;;;;;7.78;4.70;;;22.60;99.90;;;;;;5095877;28;20181;-55
2022/06/04 09:10:31;;;;;;;7.78;4.63;;;22.70;99.90;;;;;;5095044;28;20209;-54
2022/06/04 09:13:04;;;;;;;7.90;4.93;;;22.70;99.90;;;;;;5095015;28;20520;-53
2022/06/04 09:15:45;;;;;;;5.18;4.47;;;22.60;99.90;;;;;;5095546;28;20218;-49
2022/06/04 09:18:35;;;;;;;4.72;4.32;;;22.60;99.90;;;;;;5095399;28;20562;-53
2022/06/04 09:21:02;;;;;;;7.70;4.75;;;22.70;99.90;;;;;;5095039;28;20165;-50
2022/06/04 09:23:45;;;;;;;7.68;4.90;;;22.70;99.90;;;;;;5077490;28;20261;-54
2022/06/04 09:26:13;;;;;;;5.10;4.63;;;22.80;99.90;;;;;;5094883;28;20164;-54
2022/06/04 09:28:57;;;;;;;6.32;5.07;;;22.80;99.90;;;;;;5094813;28;20257;-53
2022/06/04 09:31:42;;;;;;;7.38;4.70;;;22.80;99.90;;;;;;5095035;28;20581;-54
2022/06/04 09:34:19;;;;;;;7.55;4.70;;;22.80;99.90;;;;;;5094749;28;20646;-55
2022/06/04 09:36:46;;;;;;;5.93;5.00;;;22.60;99.90;;;;;;5094605;28;20173;-54
2022/06/04 09:39:30;;;;;;;7.45;4.90;;;22.70;99.90;;;;;;5094619;28;20664;-53
2022/06/04 09:42:02;;;;;;;13.52;4.63;;;22.70;99.90;;;;;;5094915;28;20260;-54
2022/06/04 09:44:32;;;;;;;11.38;5.43;;;22.70;99.90;;;;;;5094838;28;20260;-54
2022/06/04 09:47:30;;;;;;;6.32;5.00;;;22.80;99.90;;;;;;5094949;28;20645;-54
2022/06/04 09:50:00;;;;;;;4.45;4.05;;;22.90;99.90;;;;;;5087741;28;20221;-54
2022/06/04 09:52:28;;;;;;;9.27;5.10;;;23.00;99.90;;;;;;5076414;28;20309;-53
2022/06/04 09:54:59;;;;;;;8.20;4.93;;;22.90;99.90;;;;;;5094358;28;20192;-54
2022/06/04 09:57:35;;;;;;;5.95;5.00;;;22.80;99.90;;;;;;5076168;28;20253;-54
2022/06/04 10:00:07;;;;;;;4.63;4.20;;;22.90;99.90;;;;;;5094259;28;20172;-53
2022/06/04 10:02:32;;;;;;;5.65;4.55;;;23.00;99.90;;;;;;5094193;28;20169;-53
2022/06/04 10:05:06;;;;;;;7.22;5.00;;;23.40;99.90;;;;;;5094580;28;20252;-54
2022/06/04 10:07:35;;;;;;;11.02;4.80;;;23.30;99.90;;;;;;5094134;28;20169;-53
2022/06/04 10:10:35;;;;;;;7.10;4.80;;;23.50;99.90;;;;;;5094050;28;20205;-53
2022/06/04 10:15:56;;;;;;;8.77;5.60;;;23.60;99.90;;;;;;5094128;28;20184;-54
2022/06/04 10:18:28;;;;;;;5.82;5.07;;;23.70;99.90;;;;;;5092950;28;20245;-53
2022/06/04 10:21:19;;;;;;;5.00;4.50;;;23.50;99.90;;;;;;5093665;28;20535;-54
2022/06/04 10:23:48;;;;;;;6.78;5.00;;;23.90;99.90;;;;;;5093937;28;20638;-53
2022/06/04 10:26:41;;;;;;;6.10;5.50;;;24.00;99.90;;;;;;5093790;28;20164;-54
2022/06/04 10:29:22;;;;;;;5.55;5.05;;;24.10;99.90;;;;;;5093374;28;20570;-54
2022/06/04 10:31:51;;;;;;;5.18;4.50;;;24.30;99.90;;;;;;5093553;28;20256;-54
2022/06/04 10:34:30;;;;;;;5.60;4.57;;;24.20;99.90;;;;;;5093074;28;20164;-54
2022/06/04 10:37:16;;;;;;;6.35;5.22;;;24.10;99.90;;;;;;5093330;28;20195;-54
2022/06/04 10:39:51;;;;;;;8.38;5.68;;;24.10;99.90;;;;;;5092394;28;20379;-53
2022/06/04 10:42:25;;;;;;;5.70;5.20;;;24.00;99.90;;;;;;5092844;28;20645;-54
2022/06/04 10:44:54;;;;;;;6.07;5.45;;;23.90;99.90;;;;;;5092849;28;20168;-53
2022/06/04 10:47:46;;;;;;;5.70;4.85;;;24.20;99.90;;;;;;5093124;28;20568;-54
2022/06/04 10:50:26;;;;;;;6.75;5.00;;;24.10;99.90;;;;;;5082264;28;20756;-52
2022/06/04 10:53:00;;;;;;;5.78;4.88;;;24.30;99.90;;;;;;5092969;28;20229;-53
2022/06/04 10:55:43;;;;;;;5.72;5.13;;;24.50;99.90;;;;;;5074995;28;20169;-53
2022/06/04 10:58:21;;;;;;;6.57;5.75;;;24.40;99.90;;;;;;5093001;28;20164;-54
2022/06/04 11:00:53;;;;;;;7.00;4.55;;;24.60;99.90;;;;;;5093330;28;20172;-54
2022/06/04 11:03:37;;;;;;;5.75;5.00;;;24.80;99.90;;;;;;5093314;28;20176;-52
2022/06/04 11:06:33;;;;;;;9.93;5.50;;;24.70;99.90;;;;;;5093024;28;20200;-50
2022/06/04 11:09:10;;;;;;;6.05;5.45;;;24.60;99.90;;;;;;5092452;28;20264;-51
2022/06/04 11:11:54;;;;;;;6.32;5.70;;;24.70;99.90;;;;;;5074770;28;20232;-50
2022/06/04 11:14:43;;;;;;;6.20;5.60;;;24.70;99.90;;;;;;5092835;28;20167;-51
2022/06/04 11:17:20;;;;;;;6.13;4.85;;;25.00;99.90;;;;;;5092797;28;20184;-50
2022/06/04 11:19:59;;;;;;;5.97;5.40;;;25.40;99.90;;;;;;5093011;28;20630;-51
2022/06/04 11:22:28;;;;;;;7.00;5.40;;;25.50;99.90;;;;;;5074922;28;20583;-51
2022/06/04 11:25:00;;;;;;;7.03;5.93;;;25.60;99.90;;;;;;5092649;28;20165;-50
2022/06/04 11:27:36;;;;;;;6.10;5.50;;;25.60;99.90;;;;;;5092992;28;20240;-50
2022/06/04 11:30:06;;;;;;;6.57;5.97;;;25.50;99.90;;;;;;5092493;28;20227;-50
2022/06/04 11:32:55;;;;;;;9.20;6.72;;;25.20;99.90;;;;;;5092570;28;20160;-51
2022/06/04 11:35:49;;;;;;;7.07;5.05;;;25.50;99.90;;;;;;5092458;28;20172;-51
2022/06/04 11:38:27;;;;;;;9.30;6.50;;;25.90;99.90;;;;;;5076072;28;20204;-52
2022/06/04 11:41:17;;;;;;;6.97;5.53;;;26.00;99.90;;;;;;5092702;28;20301;-51
2022/06/04 11:44:10;;;;;;;6.20;5.35;;;25.90;99.90;;;;;;5092458;28;20652;-51
2022/06/04 11:46:41;;;;;;;7.03;5.95;;;26.00;99.90;;;;;;5092304;28;20176;-51
2022/06/04 11:49:16;;;;;;;6.78;5.28;;;26.10;99.90;;;;;;5092180;28;20199;-49
2022/06/04 11:51:55;;;;;;;7.03;5.10;;;26.00;99.90;;;;;;5092173;28;20226;-50
2022/06/04 11:54:35;;;;;;;8.23;5.80;;;26.40;99.90;;;;;;5092372;28;20622;-51
2022/06/04 11:57:19;;;;;;;6.00;5.40;;;26.60;99.90;;;;;;5092096;28;20248;-50
2022/06/04 12:00:07;;;;;;;5.97;5.38;;;26.80;99.90;;;;;;5091963;28;20634;-52
2022/06/04 12:02:48;;;;;;;6.53;5.53;;;27.10;99.90;;;;;;5091852;28;20172;-50
2022/06/04 12:05:41;;;;;;;6.32;5.70;;;26.80;99.90;;;;;;5091958;28;20164;-51
2022/06/04 12:08:12;;;;;;;6.35;5.75;;;26.80;99.90;;;;;;5091630;28;20157;-50
2022/06/04 12:11:06;;;;;;;6.40;5.80;;;26.70;99.90;;;;;;5091936;28;20255;-52
2022/06/04 12:13:42;;;;;;;6.55;5.70;;;26.50;99.90;;;;;;5091933;28;20552;-50
2022/06/04 12:16:23;;;;;;;8.18;5.93;;;26.40;99.90;;;;;;5091956;28;20161;-51
2022/06/04 12:25:12;;;;;;;7.20;5.43;;;26.60;99.90;;;;;;5092152;28;20200;-52
2022/06/04 12:27:53;;;;;;;8.45;6.45;;;26.60;99.90;;;;;;5091961;28;20168;-51
2022/06/04 12:30:36;;;;;;;6.07;5.47;;;26.80;99.90;;;;;;5091513;28;20204;-51
2022/06/04 12:33:08;;;;;;;6.85;5.90;;;26.90;99.90;;;;;;5073249;28;20164;-51
2022/06/04 12:35:34;;;;;;;5.93;5.30;;;27.10;99.90;;;;;;5091463;28;20184;-51
2022/06/04 12:38:11;;;;;;;7.25;6.28;;;27.20;99.90;;;;;;5091891;28;20524;-51
2022/06/04 12:40:37;;;;;;;6.85;6.10;;;27.00;99.90;;;;;;5090673;28;20161;-52
2022/06/04 12:43:30;;;;;;;6.45;5.38;;;27.10;99.90;;;;;;5095694;28;20199;-51
2022/06/04 12:46:12;;;;;;;5.32;4.82;;;27.00;99.90;;;;;;5085931;28;20226;-50
2022/06/04 12:48:59;;;;;;;6.72;5.10;;;26.90;99.90;;;;;;5095629;28;20701;-52
2022/06/04 12:51:45;;;;;;;6.25;5.63;;;27.20;99.90;;;;;;5095835;28;20189;-52
2022/06/04 12:54:29;;;;;;;11.07;6.63;;;27.10;99.90;;;;;;5095619;28;20656;-54
2022/06/04 12:57:05;;;;;;;6.93;5.70;;;27.00;99.90;;;;;;5095345;28;20168;-53
2022/06/04 12:59:46;;;;;;;7.60;6.05;;;27.10;99.90;;;;;;5076767;28;20174;-52
2022/06/04 13:02:33;;;;;;;8.98;7.00;;;27.30;99.90;;;;;;5094976;28;20192;-50
2022/06/04 13:05:20;;;;;;;14.23;6.00;;;27.00;99.90;;;;;;5095254;28;20702;-51
2022/06/04 13:07:55;;;;;;;9.85;6.45;;;27.30;99.90;;;;;;5095169;28;20240;-51
2022/06/04 13:10:40;;;;;;;6.38;5.78;;;27.10;99.90;;;;;;5095138;28;20215;-52
2022/06/04 13:13:35;;;;;;;6.03;4.75;;;27.30;99.90;;;;;;5095054;28;20262;-51
2022/06/04 13:16:10;;;;;;;7.22;6.20;;;27.40;99.90;;;;;;5076809;28;20169;-52
2022/06/04 13:18:40;;;;;;;12.65;5.55;;;27.40;99.90;;;;;;5094946;28;20514;-51
2022/06/04 13:21:18;;;;;;;7.07;5.90;;;27.60;99.90;;;;;;5094779;28;20173;-51
2022/06/04 13:23:58;;;;;;;6.95;5.13;;;27.20;99.90;;;;;;5094722;28;20160;-52
2022/06/04 13:26:50;;;;;;;6.50;5.57;;;27.40;99.90;;;;;;5095219;28;20172;-52
2022/06/04 13:29:23;;;;;;;6.53;5.93;;;27.40;99.90;;;;;;5080372;28;20239;-51
2022/06/04 13:31:55;;;;;;;6.15;4.65;;;27.60;99.90;;;;;;5094474;28;20269;-50
2022/06/04 13:34:23;;;;;;;6.30;5.00;;;27.70;99.90;;;;;;5094610;28;20268;-52
2022/06/04 13:36:57;;;;;;;6.50;5.95;;;27.70;99.90;;;;;;5094445;28;20256;-53